sensor_id;sensor_type;location;lat;lon;timestamp;noise_LAeq;noise_LA_min;noise_LA_max;noise_LA01;noise_LA95
58197;Laerm;43999;51.660;5.616;2023-07-13T00:11:57;49.56;48.28;51.17;;
58197;Laerm;43999;51.660;5.616;2023-07-13T00:14:28;49.54;48.36;51.28;;
58197;Laerm;43999;51.660;5.616;2023-07-13T00:16:56;49.56;48.23;51.02;;
58197;Laerm;43999;51.660;5.616;2023-07-13T00:19:24;49.55;48.25;51.13;;
58197;Laerm;43999;51.660;5.616;2023-07-13T00:21:51;49.56;48.25;51.16;;
58197;Laerm;43999;51.660;5.616;2023-07-13T00:24:23;49.56;48.31;51.11;;
58197;Laerm;43999;51.660;5.616;2023-07-13T00:26:52;49.54;48.21;51.33;;
58197;Laerm;43999;51.660;5.616;2023-07-13T00:29:19;49.56;48.15;51.41;;
58197;Laerm;43999;51.660;5.616;2023-07-13T00:31:48;49.55;48.28;51.31;;
58197;Laerm;43999;51.660;5.616;2023-07-13T00:34:16;49.54;48.20;51.28;;
58197;Laerm;43999;51.660;5.616;2023-07-13T00:36:43;49.53;48.13;51.33;;
58197;Laerm;43999;51.660;5.616;2023-07-13T00:39:12;49.55;48.34;51.30;;
58197;Laerm;43999;51.660;5.616;2023-07-13T00:41:40;49.54;48.37;51.17;;
58197;Laerm;43999;51.660;5.616;2023-07-13T00:44:19;49.53;48.25;51.29;;
58197;Laerm;43999;51.660;5.616;2023-07-13T00:46:47;49.53;48.25;51.20;;
58197;Laerm;43999;51.660;5.616;2023-07-13T00:49:20;49.53;48.25;51.70;;
58197;Laerm;43999;51.660;5.616;2023-07-13T00:51:55;49.53;48.25;51.01;;
58197;Laerm;43999;51.660;5.616;2023-07-13T00:54:38;49.53;48.12;50.96;;
58197;Laerm;43999;51.660;5.616;2023-07-13T00:57:16;49.54;48.34;51.29;;
58197;Laerm;43999;51.660;5.616;2023-07-13T00:59:55;49.54;48.10;51.53;;
58197;Laerm;43999;51.660;5.616;2023-07-13T01:02:26;49.52;48.39;51.37;;
58197;Laerm;43999;51.660;5.616;2023-07-13T01:04:56;49.53;47.93;51.19;;
58197;Laerm;43999;51.660;5.616;2023-07-13T01:07:25;49.52;48.36;51.12;;
58197;Laerm;43999;51.660;5.616;2023-07-13T01:09:52;49.52;48.32;50.98;;
58197;Laerm;43999;51.660;5.616;2023-07-13T01:12:19;49.53;48.25;51.30;;
58197;Laerm;43999;51.660;5.616;2023-07-13T01:14:47;49.53;48.32;51.19;;
58197;Laerm;43999;51.660;5.616;2023-07-13T01:17:15;49.53;48.31;51.06;;
58197;Laerm;43999;51.660;5.616;2023-07-13T01:19:45;49.53;48.31;51.35;;
58197;Laerm;43999;51.660;5.616;2023-07-13T01:22:18;49.53;48.15;51.19;;
58197;Laerm;43999;51.660;5.616;2023-07-13T01:24:48;49.53;48.25;51.14;;
58197;Laerm;43999;51.660;5.616;2023-07-13T01:27:22;49.52;48.02;51.20;;
58197;Laerm;43999;51.660;5.616;2023-07-13T01:29:53;49.52;48.15;51.33;;
58197;Laerm;43999;51.660;5.616;2023-07-13T01:32:24;49.51;48.31;51.22;;
58197;Laerm;43999;51.660;5.616;2023-07-13T01:34:55;49.52;48.25;51.04;;
58197;Laerm;43999;51.660;5.616;2023-07-13T01:37:26;49.53;48.29;51.51;;
58197;Laerm;43999;51.660;5.616;2023-07-13T01:39:54;49.52;48.13;51.49;;
58197;Laerm;43999;51.660;5.616;2023-07-13T01:42:22;49.51;48.28;51.26;;
58197;Laerm;43999;51.660;5.616;2023-07-13T01:44:49;49.50;48.18;51.43;;
58197;Laerm;43999;51.660;5.616;2023-07-13T01:47:16;49.51;48.25;51.08;;
58197;Laerm;43999;51.660;5.616;2023-07-13T01:49:44;49.52;48.21;51.25;;
58197;Laerm;43999;51.660;5.616;2023-07-13T01:52:14;49.52;48.23;51.47;;
58197;Laerm;43999;51.660;5.616;2023-07-13T01:54:42;49.52;48.23;51.29;;
58197;Laerm;43999;51.660;5.616;2023-07-13T01:57:09;49.52;48.37;51.29;;
58197;Laerm;43999;51.660;5.616;2023-07-13T01:59:36;49.50;48.08;50.93;;
58197;Laerm;43999;51.660;5.616;2023-07-13T02:02:06;49.51;48.36;51.15;;
58197;Laerm;43999;51.660;5.616;2023-07-13T02:04:34;49.51;48.29;51.18;;
58197;Laerm;43999;51.660;5.616;2023-07-13T02:07:02;49.52;48.10;51.32;;
58197;Laerm;43999;51.660;5.616;2023-07-13T02:09:29;49.51;48.31;51.04;;
58197;Laerm;43999;51.660;5.616;2023-07-13T02:11:58;49.51;48.37;51.07;;
58197;Laerm;43999;51.660;5.616;2023-07-13T02:14:31;49.52;48.16;51.11;;
58197;Laerm;43999;51.660;5.616;2023-07-13T02:16:58;49.51;48.15;51.37;;
58197;Laerm;43999;51.660;5.616;2023-07-13T02:19:25;49.49;48.12;51.06;;
58197;Laerm;43999;51.660;5.616;2023-07-13T02:21:53;49.50;48.20;51.02;;
58197;Laerm;43999;51.660;5.616;2023-07-13T02:24:20;49.51;48.12;51.18;;
58197;Laerm;43999;51.660;5.616;2023-07-13T02:26:48;49.49;48.16;51.03;;
58197;Laerm;43999;51.660;5.616;2023-07-13T02:29:15;49.51;48.15;51.13;;
58197;Laerm;43999;51.660;5.616;2023-07-13T02:31:45;49.50;48.31;51.07;;
58197;Laerm;43999;51.660;5.616;2023-07-13T02:34:12;49.50;48.26;51.50;;
58197;Laerm;43999;51.660;5.616;2023-07-13T02:36:40;49.50;48.28;51.00;;
58197;Laerm;43999;51.660;5.616;2023-07-13T02:39:08;49.51;48.23;51.19;;
58197;Laerm;43999;51.660;5.616;2023-07-13T02:41:38;49.50;48.36;51.14;;
58197;Laerm;43999;51.660;5.616;2023-07-13T02:44:06;49.51;48.23;51.22;;
58197;Laerm;43999;51.660;5.616;2023-07-13T02:46:37;49.51;48.16;51.13;;
58197;Laerm;43999;51.660;5.616;2023-07-13T02:49:05;49.51;47.98;51.63;;
58197;Laerm;43999;51.660;5.616;2023-07-13T02:51:33;49.50;48.18;51.22;;
58197;Laerm;43999;51.660;5.616;2023-07-13T02:54:03;49.49;48.25;51.09;;
58197;Laerm;43999;51.660;5.616;2023-07-13T02:56:32;49.51;48.32;51.05;;
58197;Laerm;43999;51.660;5.616;2023-07-13T02:59:00;49.50;48.23;51.08;;
58197;Laerm;43999;51.660;5.616;2023-07-13T03:01:27;49.48;48.23;51.37;;
58197;Laerm;43999;51.660;5.616;2023-07-13T03:03:55;49.49;48.03;51.51;;
58197;Laerm;43999;51.660;5.616;2023-07-13T03:06:23;49.48;48.29;51.16;;
58197;Laerm;43999;51.660;5.616;2023-07-13T03:08:53;49.51;48.07;51.44;;
58197;Laerm;43999;51.660;5.616;2023-07-13T03:11:21;49.49;48.07;51.48;;
58197;Laerm;43999;51.660;5.616;2023-07-13T03:14:08;49.48;48.15;51.03;;
58197;Laerm;43999;51.660;5.616;2023-07-13T03:19:05;49.50;47.83;51.63;;
58197;Laerm;43999;51.660;5.616;2023-07-13T03:21:32;49.50;48.36;51.14;;
58197;Laerm;43999;51.660;5.616;2023-07-13T03:24:00;49.49;48.28;51.16;;
58197;Laerm;43999;51.660;5.616;2023-07-13T03:26:28;49.49;48.18;51.21;;
58197;Laerm;43999;51.660;5.616;2023-07-13T03:28:56;49.49;48.28;51.02;;
58197;Laerm;43999;51.660;5.616;2023-07-13T03:31:32;49.49;48.16;51.10;;
58197;Laerm;43999;51.660;5.616;2023-07-13T03:34:00;49.49;48.26;50.98;;
58197;Laerm;43999;51.660;5.616;2023-07-13T03:36:31;49.48;48.20;51.09;;
58197;Laerm;43999;51.660;5.616;2023-07-13T03:39:04;49.49;48.21;51.30;;
58197;Laerm;43999;51.660;5.616;2023-07-13T03:41:45;49.48;48.15;51.54;;
58197;Laerm;43999;51.660;5.616;2023-07-13T03:44:16;49.50;48.05;51.26;;
58197;Laerm;43999;51.660;5.616;2023-07-13T03:46:44;49.48;48.36;51.31;;
58197;Laerm;43999;51.660;5.616;2023-07-13T03:49:13;49.49;48.20;51.22;;
58197;Laerm;43999;51.660;5.616;2023-07-13T03:51:41;49.48;48.26;51.46;;
58197;Laerm;43999;51.660;5.616;2023-07-13T03:54:08;49.47;48.32;51.13;;
58197;Laerm;43999;51.660;5.616;2023-07-13T03:56:37;49.49;48.28;51.14;;
58197;Laerm;43999;51.660;5.616;2023-07-13T03:59:06;49.48;48.29;51.25;;
58197;Laerm;43999;51.660;5.616;2023-07-13T04:01:34;49.48;48.25;51.47;;
58197;Laerm;43999;51.660;5.616;2023-07-13T04:04:02;49.47;48.03;51.12;;
58197;Laerm;43999;51.660;5.616;2023-07-13T04:06:34;49.48;47.93;51.23;;
58197;Laerm;43999;51.660;5.616;2023-07-13T04:09:04;49.48;48.00;51.21;;
58197;Laerm;43999;51.660;5.616;2023-07-13T04:11:36;49.48;48.32;51.15;;
58197;Laerm;43999;51.660;5.616;2023-07-13T04:14:04;49.48;48.31;51.27;;
58197;Laerm;43999;51.660;5.616;2023-07-13T04:16:33;49.48;48.32;51.19;;
58197;Laerm;43999;51.660;5.616;2023-07-13T04:19:01;49.47;48.18;51.34;;
58197;Laerm;43999;51.660;5.616;2023-07-13T04:21:31;49.48;48.10;51.29;;
58197;Laerm;43999;51.660;5.616;2023-07-13T04:23:59;49.49;47.84;51.23;;
58197;Laerm;43999;51.660;5.616;2023-07-13T04:26:26;49.48;48.26;51.37;;
58197;Laerm;43999;51.660;5.616;2023-07-13T04:28:55;49.48;48.16;51.24;;
58197;Laerm;43999;51.660;5.616;2023-07-13T04:31:23;49.49;48.12;51.40;;
58197;Laerm;43999;51.660;5.616;2023-07-13T04:33:50;49.48;48.29;51.09;;
58197;Laerm;43999;51.660;5.616;2023-07-13T04:36:18;49.49;48.18;51.64;;
58197;Laerm;43999;51.660;5.616;2023-07-13T04:38:46;49.49;48.29;51.08;;
58197;Laerm;43999;51.660;5.616;2023-07-13T04:41:15;49.49;48.34;51.26;;
58197;Laerm;43999;51.660;5.616;2023-07-13T04:43:42;49.50;48.31;51.18;;
58197;Laerm;43999;51.660;5.616;2023-07-13T04:46:15;49.51;48.26;51.09;;
58197;Laerm;43999;51.660;5.616;2023-07-13T04:48:45;49.50;48.29;51.13;;
58197;Laerm;43999;51.660;5.616;2023-07-13T04:51:12;49.50;48.29;51.23;;
58197;Laerm;43999;51.660;5.616;2023-07-13T04:53:40;49.50;48.26;51.20;;
58197;Laerm;43999;51.660;5.616;2023-07-13T04:56:07;49.52;48.23;51.14;;
58197;Laerm;43999;51.660;5.616;2023-07-13T04:58:35;49.50;48.42;51.05;;
58197;Laerm;43999;51.660;5.616;2023-07-13T05:01:05;49.51;48.20;51.24;;
58197;Laerm;43999;51.660;5.616;2023-07-13T05:03:34;49.52;48.25;51.17;;
58197;Laerm;43999;51.660;5.616;2023-07-13T05:06:08;49.52;48.21;51.50;;
58197;Laerm;43999;51.660;5.616;2023-07-13T05:08:38;49.50;48.02;51.26;;
58197;Laerm;43999;51.660;5.616;2023-07-13T05:11:06;49.51;48.07;51.07;;
58197;Laerm;43999;51.660;5.616;2023-07-13T05:13:35;49.52;48.21;51.17;;
58197;Laerm;43999;51.660;5.616;2023-07-13T05:16:05;49.51;48.10;51.19;;
58197;Laerm;43999;51.660;5.616;2023-07-13T05:18:36;49.52;48.20;51.30;;
58197;Laerm;43999;51.660;5.616;2023-07-13T05:21:10;49.50;48.25;51.07;;
58197;Laerm;43999;51.660;5.616;2023-07-13T05:23:39;49.53;48.29;51.53;;
58197;Laerm;43999;51.660;5.616;2023-07-13T05:26:10;49.52;48.20;51.24;;
58197;Laerm;43999;51.660;5.616;2023-07-13T05:28:38;49.53;48.07;51.08;;
58197;Laerm;43999;51.660;5.616;2023-07-13T05:31:09;49.55;48.39;51.19;;
58197;Laerm;43999;51.660;5.616;2023-07-13T05:33:37;49.53;48.34;51.37;;
58197;Laerm;43999;51.660;5.616;2023-07-13T05:36:04;49.53;48.05;51.49;;
58197;Laerm;43999;51.660;5.616;2023-07-13T05:38:32;49.53;48.32;51.48;;
58197;Laerm;43999;51.660;5.616;2023-07-13T05:41:00;49.54;48.26;50.98;;
58197;Laerm;43999;51.660;5.616;2023-07-13T05:43:32;49.53;48.12;51.81;;
58197;Laerm;43999;51.660;5.616;2023-07-13T05:46:00;49.54;48.36;51.17;;
58197;Laerm;43999;51.660;5.616;2023-07-13T05:48:27;49.53;48.05;51.20;;
58197;Laerm;43999;51.660;5.616;2023-07-13T05:50:55;49.55;47.96;51.33;;
58197;Laerm;43999;51.660;5.616;2023-07-13T05:53:22;49.55;48.26;51.42;;
58197;Laerm;43999;51.660;5.616;2023-07-13T05:55:49;49.54;48.40;51.26;;
58197;Laerm;43999;51.660;5.616;2023-07-13T05:58:19;49.56;48.32;51.10;;
58197;Laerm;43999;51.660;5.616;2023-07-13T06:00:48;49.55;48.29;51.29;;
58197;Laerm;43999;51.660;5.616;2023-07-13T06:03:15;49.54;48.12;51.71;;
58197;Laerm;43999;51.660;5.616;2023-07-13T06:05:43;49.54;48.32;51.17;;
58197;Laerm;43999;51.660;5.616;2023-07-13T06:08:10;49.55;48.39;51.26;;
58197;Laerm;43999;51.660;5.616;2023-07-13T06:10:38;49.56;48.26;51.22;;
58197;Laerm;43999;51.660;5.616;2023-07-13T06:13:05;49.56;48.18;51.40;;
58197;Laerm;43999;51.660;5.616;2023-07-13T06:15:33;49.56;48.28;51.37;;
58197;Laerm;43999;51.660;5.616;2023-07-13T06:18:01;49.57;48.03;51.01;;
58197;Laerm;43999;51.660;5.616;2023-07-13T06:20:29;49.55;48.25;51.38;;
58197;Laerm;43999;51.660;5.616;2023-07-13T06:22:57;49.56;48.37;51.20;;
58197;Laerm;43999;51.660;5.616;2023-07-13T06:25:27;49.56;48.25;51.33;;
58197;Laerm;43999;51.660;5.616;2023-07-13T06:27:54;49.56;48.40;51.17;;
58197;Laerm;43999;51.660;5.616;2023-07-13T06:30:22;49.55;48.29;50.96;;
58197;Laerm;43999;51.660;5.616;2023-07-13T06:32:50;49.58;48.43;51.27;;
58197;Laerm;43999;51.660;5.616;2023-07-13T06:35:17;49.57;48.31;51.13;;
58197;Laerm;43999;51.660;5.616;2023-07-13T06:37:46;49.57;48.08;51.05;;
58197;Laerm;43999;51.660;5.616;2023-07-13T06:40:14;49.59;48.23;51.18;;
58197;Laerm;43999;51.660;5.616;2023-07-13T06:42:42;49.58;48.32;51.13;;
58197;Laerm;43999;51.660;5.616;2023-07-13T06:45:10;49.58;48.29;51.39;;
58197;Laerm;43999;51.660;5.616;2023-07-13T06:47:37;49.58;48.26;51.15;;
58197;Laerm;43999;51.660;5.616;2023-07-13T06:50:06;49.58;48.23;51.49;;
58197;Laerm;43999;51.660;5.616;2023-07-13T06:52:33;49.58;48.45;51.52;;
58197;Laerm;43999;51.660;5.616;2023-07-13T06:55:02;49.58;48.23;51.04;;
58197;Laerm;43999;51.660;5.616;2023-07-13T06:57:30;49.58;48.31;51.36;;
58197;Laerm;43999;51.660;5.616;2023-07-13T06:59:57;49.60;48.25;51.40;;
58197;Laerm;43999;51.660;5.616;2023-07-13T07:02:25;49.59;48.34;51.35;;
58197;Laerm;43999;51.660;5.616;2023-07-13T07:04:52;49.60;48.28;51.44;;
58197;Laerm;43999;51.660;5.616;2023-07-13T07:07:24;49.59;48.39;51.46;;
58197;Laerm;43999;51.660;5.616;2023-07-13T07:09:52;49.60;48.32;51.33;;
58197;Laerm;43999;51.660;5.616;2023-07-13T07:12:19;49.59;48.15;51.04;;
58197;Laerm;43999;51.660;5.616;2023-07-13T07:14:47;49.61;48.54;51.23;;
58197;Laerm;43999;51.660;5.616;2023-07-13T07:17:14;49.60;48.32;51.30;;
58197;Laerm;43999;51.660;5.616;2023-07-13T07:19:42;49.60;48.36;51.21;;
58197;Laerm;43999;51.660;5.616;2023-07-13T07:22:09;49.60;48.12;51.12;;
58197;Laerm;43999;51.660;5.616;2023-07-13T07:24:37;49.59;48.08;51.87;;
58197;Laerm;43999;51.660;5.616;2023-07-13T07:27:05;49.59;48.26;51.67;;
58197;Laerm;43999;51.660;5.616;2023-07-13T07:29:35;49.61;48.23;51.33;;
58197;Laerm;43999;51.660;5.616;2023-07-13T07:32:10;49.60;48.45;51.47;;
58197;Laerm;43999;51.660;5.616;2023-07-13T07:35:00;49.60;48.23;51.14;;
58197;Laerm;43999;51.660;5.616;2023-07-13T07:37:27;49.61;48.39;51.29;;
58197;Laerm;43999;51.660;5.616;2023-07-13T07:39:57;49.60;48.34;51.40;;
58197;Laerm;43999;51.660;5.616;2023-07-13T07:42:29;49.61;48.21;51.17;;
58197;Laerm;43999;51.660;5.616;2023-07-13T07:44:56;49.61;48.31;51.03;;
58197;Laerm;43999;51.660;5.616;2023-07-13T07:47:24;49.60;48.48;51.30;;
58197;Laerm;43999;51.660;5.616;2023-07-13T07:49:51;49.62;48.42;51.17;;
58197;Laerm;43999;51.660;5.616;2023-07-13T07:52:19;49.62;48.18;51.26;;
58197;Laerm;43999;51.660;5.616;2023-07-13T07:54:47;49.61;48.37;51.41;;
58197;Laerm;43999;51.660;5.616;2023-07-13T07:57:17;49.62;48.28;51.30;;
58197;Laerm;43999;51.660;5.616;2023-07-13T08:00:06;49.62;48.38;51.32;;
58197;Laerm;43999;51.660;5.616;2023-07-13T08:02:43;49.63;48.18;51.49;;
58197;Laerm;43999;51.660;5.616;2023-07-13T08:05:14;49.62;48.07;51.30;;
58197;Laerm;43999;51.660;5.616;2023-07-13T08:07:44;49.61;48.36;51.37;;
58197;Laerm;43999;51.660;5.616;2023-07-13T08:10:12;49.62;48.32;51.47;;
58197;Laerm;43999;51.660;5.616;2023-07-13T08:12:40;49.61;48.26;51.80;;
58197;Laerm;43999;51.660;5.616;2023-07-13T08:15:15;49.64;48.21;51.38;;
58197;Laerm;43999;51.660;5.616;2023-07-13T08:17:43;49.65;48.48;51.18;;
58197;Laerm;43999;51.660;5.616;2023-07-13T08:20:12;49.64;48.29;51.31;;
58197;Laerm;43999;51.660;5.616;2023-07-13T08:22:39;49.67;48.16;51.25;;
58197;Laerm;43999;51.660;5.616;2023-07-13T08:25:07;49.66;48.05;51.37;;
58197;Laerm;43999;51.660;5.616;2023-07-13T08:27:35;49.68;48.45;51.28;;
58197;Laerm;43999;51.660;5.616;2023-07-13T08:30:03;49.65;48.29;51.23;;
58197;Laerm;43999;51.660;5.616;2023-07-13T08:32:33;49.67;48.29;51.18;;
58197;Laerm;43999;51.660;5.616;2023-07-13T08:35:00;49.67;48.28;51.33;;
58197;Laerm;43999;51.660;5.616;2023-07-13T08:37:28;49.71;48.37;51.40;;
58197;Laerm;43999;51.660;5.616;2023-07-13T08:39:55;49.70;48.29;51.37;;
58197;Laerm;43999;51.660;5.616;2023-07-13T08:45:43;49.70;48.43;51.29;;
58197;Laerm;43999;51.660;5.616;2023-07-13T08:49:21;49.71;48.45;51.33;;
58197;Laerm;43999;51.660;5.616;2023-07-13T08:54:56;49.75;48.48;51.27;;
58197;Laerm;43999;51.660;5.616;2023-07-13T08:57:33;49.75;48.39;51.35;;
58197;Laerm;43999;51.660;5.616;2023-07-13T09:00:02;49.74;48.54;51.28;;
58197;Laerm;43999;51.660;5.616;2023-07-13T09:02:55;49.73;48.45;51.29;;
58197;Laerm;43999;51.660;5.616;2023-07-13T09:05:38;49.74;48.57;51.99;;
58197;Laerm;43999;51.660;5.616;2023-07-13T09:08:59;49.75;48.48;51.33;;
58197;Laerm;43999;51.660;5.616;2023-07-13T09:11:59;49.78;48.32;51.41;;
58197;Laerm;43999;51.660;5.616;2023-07-13T09:14:55;49.77;48.52;51.30;;
58197;Laerm;43999;51.660;5.616;2023-07-13T09:17:47;49.80;48.46;51.25;;
58197;Laerm;43999;51.660;5.616;2023-07-13T09:20:31;49.79;48.54;51.31;;
58197;Laerm;43999;51.660;5.616;2023-07-13T09:23:05;49.80;48.25;51.44;;
58197;Laerm;43999;51.660;5.616;2023-07-13T09:25:37;49.77;48.43;51.30;;
58197;Laerm;43999;51.660;5.616;2023-07-13T09:28:19;49.77;48.54;51.46;;
58197;Laerm;43999;51.660;5.616;2023-07-13T09:31:28;49.78;48.48;51.24;;
58197;Laerm;43999;51.660;5.616;2023-07-13T09:34:00;49.78;48.46;51.59;;
58197;Laerm;43999;51.660;5.616;2023-07-13T09:36:33;49.77;48.55;51.89;;
58197;Laerm;43999;51.660;5.616;2023-07-13T09:42:21;49.76;48.46;51.48;;
58197;Laerm;43999;51.660;5.616;2023-07-13T09:44:59;49.76;48.48;51.23;;
58197;Laerm;43999;51.660;5.616;2023-07-13T09:47:31;49.77;48.54;51.52;;
58197;Laerm;43999;51.660;5.616;2023-07-13T09:50:06;49.77;48.45;51.18;;
58197;Laerm;43999;51.660;5.616;2023-07-13T09:52:49;49.80;48.61;51.80;;
58197;Laerm;43999;51.660;5.616;2023-07-13T09:55:38;49.82;48.29;51.48;;
58197;Laerm;43999;51.660;5.616;2023-07-13T09:58:24;49.82;48.49;51.55;;
58197;Laerm;43999;51.660;5.616;2023-07-13T10:01:04;49.83;48.55;51.56;;
58197;Laerm;43999;51.660;5.616;2023-07-13T10:03:37;49.81;48.54;51.71;;
58197;Laerm;43999;51.660;5.616;2023-07-13T10:06:19;49.82;48.39;51.30;;
58197;Laerm;43999;51.660;5.616;2023-07-13T10:08:55;49.82;48.55;51.44;;
58197;Laerm;43999;51.660;5.616;2023-07-13T10:11:30;49.82;48.52;51.40;;
58197;Laerm;43999;51.660;5.616;2023-07-13T10:14:14;49.84;48.26;51.46;;
58197;Laerm;43999;51.660;5.616;2023-07-13T10:16:46;49.85;48.52;51.30;;
58197;Laerm;43999;51.660;5.616;2023-07-13T10:19:29;49.85;48.48;51.48;;
58197;Laerm;43999;51.660;5.616;2023-07-13T10:22:32;49.83;48.48;51.35;;
58197;Laerm;43999;51.660;5.616;2023-07-13T10:25:17;49.82;48.66;51.37;;
58197;Laerm;43999;51.660;5.616;2023-07-13T10:27:47;49.83;48.54;51.79;;
58197;Laerm;43999;51.660;5.616;2023-07-13T10:30:28;49.83;48.43;51.32;;
58197;Laerm;43999;51.660;5.616;2023-07-13T10:33:10;49.83;48.61;51.63;;
58197;Laerm;43999;51.660;5.616;2023-07-13T10:35:43;49.81;48.54;51.29;;
58197;Laerm;43999;51.660;5.616;2023-07-13T10:38:22;49.82;48.54;51.48;;
58197;Laerm;43999;51.660;5.616;2023-07-13T10:41:06;49.81;48.39;51.34;;
58197;Laerm;43999;51.660;5.616;2023-07-13T10:43:52;49.83;48.54;51.59;;
58197;Laerm;43999;51.660;5.616;2023-07-13T10:46:25;49.84;48.58;51.44;;
58197;Laerm;43999;51.660;5.616;2023-07-13T10:49:06;49.85;48.42;51.68;;
58197;Laerm;43999;51.660;5.616;2023-07-13T10:51:35;49.82;48.51;51.30;;
58197;Laerm;43999;51.660;5.616;2023-07-13T10:54:18;49.83;48.52;51.26;;
58197;Laerm;43999;51.660;5.616;2023-07-13T10:59:34;49.80;48.58;51.34;;
58197;Laerm;43999;51.660;5.616;2023-07-13T11:04:43;49.78;48.42;51.47;;
58197;Laerm;43999;51.660;5.616;2023-07-13T11:07:27;49.78;48.42;51.44;;
58197;Laerm;43999;51.660;5.616;2023-07-13T11:10:05;49.76;48.52;51.20;;
58197;Laerm;43999;51.660;5.616;2023-07-13T11:12:48;49.77;48.32;51.97;;
58197;Laerm;43999;51.660;5.616;2023-07-13T11:15:43;49.81;48.43;51.36;;
58197;Laerm;43999;51.660;5.616;2023-07-13T11:18:24;49.82;48.61;51.51;;
58197;Laerm;43999;51.660;5.616;2023-07-13T11:21:12;49.82;48.66;51.82;;
58197;Laerm;43999;51.660;5.616;2023-07-13T11:24:17;49.77;48.55;51.33;;
58197;Laerm;43999;51.660;5.616;2023-07-13T11:29:38;49.74;48.32;51.29;;
58197;Laerm;43999;51.660;5.616;2023-07-13T11:32:31;49.71;48.37;51.26;;
58197;Laerm;43999;51.660;5.616;2023-07-13T11:34:59;49.73;48.40;51.34;;
58197;Laerm;43999;51.660;5.616;2023-07-13T11:37:29;49.70;48.42;51.16;;
58197;Laerm;43999;51.660;5.616;2023-07-13T11:39:58;49.67;48.45;51.54;;
58197;Laerm;43999;51.660;5.616;2023-07-13T11:42:26;49.64;48.20;51.22;;
58197;Laerm;43999;51.660;5.616;2023-07-13T11:44:53;49.60;48.18;51.25;;
58197;Laerm;43999;51.660;5.616;2023-07-13T11:47:42;49.57;48.31;51.23;;
58197;Laerm;43999;51.660;5.616;2023-07-13T11:50:23;49.56;48.29;51.17;;
58197;Laerm;43999;51.660;5.616;2023-07-13T11:52:54;49.57;48.34;51.70;;
58197;Laerm;43999;51.660;5.616;2023-07-13T11:55:23;49.56;48.28;51.20;;
58197;Laerm;43999;51.660;5.616;2023-07-13T11:57:59;49.56;48.16;51.22;;
58197;Laerm;43999;51.660;5.616;2023-07-13T12:00:33;49.59;48.25;51.37;;
58197;Laerm;43999;51.660;5.616;2023-07-13T12:03:03;49.59;48.25;51.60;;
58197;Laerm;43999;51.660;5.616;2023-07-13T12:05:32;49.59;48.34;51.33;;
58197;Laerm;43999;51.660;5.616;2023-07-13T12:08:10;49.62;48.43;51.21;;
58197;Laerm;43999;51.660;5.616;2023-07-13T12:11:00;49.62;48.34;51.13;;
58197;Laerm;43999;51.660;5.616;2023-07-13T12:13:37;49.62;48.29;51.42;;
58197;Laerm;43999;51.660;5.616;2023-07-13T12:16:28;49.64;48.31;51.17;;
58197;Laerm;43999;51.660;5.616;2023-07-13T12:18:57;49.65;48.48;51.43;;
58197;Laerm;43999;51.660;5.616;2023-07-13T12:21:38;49.67;48.54;51.37;;
58197;Laerm;43999;51.660;5.616;2023-07-13T12:24:19;49.68;48.29;51.58;;
58197;Laerm;43999;51.660;5.616;2023-07-13T12:27:01;49.66;48.43;51.51;;
58197;Laerm;43999;51.660;5.616;2023-07-13T12:29:32;49.67;48.13;51.29;;
58197;Laerm;43999;51.660;5.616;2023-07-13T12:32:00;49.69;48.39;51.27;;
58197;Laerm;43999;51.660;5.616;2023-07-13T12:34:27;49.69;48.34;51.73;;
58197;Laerm;43999;51.660;5.616;2023-07-13T12:37:02;49.70;48.45;51.40;;
58197;Laerm;43999;51.660;5.616;2023-07-13T12:39:46;49.70;48.42;51.73;;
58197;Laerm;43999;51.660;5.616;2023-07-13T12:42:30;49.71;48.39;51.17;;
58197;Laerm;43999;51.660;5.616;2023-07-13T12:47:42;49.72;48.49;51.41;;
58197;Laerm;43999;51.660;5.616;2023-07-13T12:50:21;49.73;48.32;51.64;;
58197;Laerm;43999;51.660;5.616;2023-07-13T12:53:03;49.73;48.49;51.43;;
58197;Laerm;43999;51.660;5.616;2023-07-13T12:55:49;49.73;48.49;51.18;;
58197;Laerm;43999;51.660;5.616;2023-07-13T12:58:40;49.74;48.36;51.26;;
58197;Laerm;43999;51.660;5.616;2023-07-13T13:01:14;49.73;48.46;51.62;;
58197;Laerm;43999;51.660;5.616;2023-07-13T13:03:51;49.72;48.23;52.03;;
58197;Laerm;43999;51.660;5.616;2023-07-13T13:06:29;49.73;48.42;51.33;;
58197;Laerm;43999;51.660;5.616;2023-07-13T13:08:59;49.72;48.43;51.42;;
58197;Laerm;43999;51.660;5.616;2023-07-13T13:11:30;49.75;48.58;51.67;;
58197;Laerm;43999;51.660;5.616;2023-07-13T13:13:58;49.75;48.55;51.30;;
58197;Laerm;43999;51.660;5.616;2023-07-13T13:16:31;49.76;48.46;51.15;;
58197;Laerm;43999;51.660;5.616;2023-07-13T13:19:21;49.77;48.49;51.33;;
58197;Laerm;43999;51.660;5.616;2023-07-13T13:21:53;49.76;48.46;51.50;;
58197;Laerm;43999;51.660;5.616;2023-07-13T13:24:26;49.76;48.63;51.53;;
58197;Laerm;43999;51.660;5.616;2023-07-13T13:26:55;49.75;48.52;51.26;;
58197;Laerm;43999;51.660;5.616;2023-07-13T13:29:26;49.75;48.54;51.29;;
58197;Laerm;43999;51.660;5.616;2023-07-13T13:31:55;49.74;48.51;51.52;;
58197;Laerm;43999;51.660;5.616;2023-07-13T13:34:25;49.73;48.12;51.40;;
58197;Laerm;43999;51.660;5.616;2023-07-13T13:36:54;49.73;48.57;51.44;;
58197;Laerm;43999;51.660;5.616;2023-07-13T13:39:36;49.74;48.39;51.79;;
58197;Laerm;43999;51.660;5.616;2023-07-13T13:42:04;49.73;48.45;51.36;;
58197;Laerm;43999;51.660;5.616;2023-07-13T13:44:32;49.72;48.48;51.32;;
58197;Laerm;43999;51.660;5.616;2023-07-13T13:47:00;49.75;48.40;51.13;;
58197;Laerm;43999;51.660;5.616;2023-07-13T13:49:29;49.72;48.45;51.59;;
58197;Laerm;43999;51.660;5.616;2023-07-13T13:51:57;49.73;48.08;51.49;;
58197;Laerm;43999;51.660;5.616;2023-07-13T13:54:27;49.72;48.31;51.40;;
58197;Laerm;43999;51.660;5.616;2023-07-13T13:56:55;49.74;48.45;51.26;;
58197;Laerm;43999;51.660;5.616;2023-07-13T13:59:23;49.73;48.29;51.35;;
58197;Laerm;43999;51.660;5.616;2023-07-13T14:01:51;49.72;48.35;51.41;;
58197;Laerm;43999;51.660;5.616;2023-07-13T14:04:22;49.73;48.51;51.13;;
58197;Laerm;43999;51.660;5.616;2023-07-13T14:06:49;49.71;48.36;51.20;;
58197;Laerm;43999;51.660;5.616;2023-07-13T14:09:19;49.72;48.31;51.42;;
58197;Laerm;43999;51.660;5.616;2023-07-13T14:11:50;49.72;48.36;51.38;;
58197;Laerm;43999;51.660;5.616;2023-07-13T14:14:23;49.72;48.39;51.26;;
58197;Laerm;43999;51.660;5.616;2023-07-13T14:16:52;49.72;48.61;51.50;;
58197;Laerm;43999;51.660;5.616;2023-07-13T14:19:23;49.71;48.29;51.31;;
58197;Laerm;43999;51.660;5.616;2023-07-13T14:21:50;49.73;48.46;51.35;;
58197;Laerm;43999;51.660;5.616;2023-07-13T14:24:21;49.73;48.55;51.53;;
58197;Laerm;43999;51.660;5.616;2023-07-13T14:26:49;49.71;48.37;51.18;;
58197;Laerm;43999;51.660;5.616;2023-07-13T14:29:19;49.73;48.54;51.47;;
58197;Laerm;43999;51.660;5.616;2023-07-13T14:31:51;49.73;48.46;51.21;;
58197;Laerm;43999;51.660;5.616;2023-07-13T14:34:19;49.72;48.48;51.40;;
58197;Laerm;43999;51.660;5.616;2023-07-13T14:36:49;49.74;48.46;51.23;;
58197;Laerm;43999;51.660;5.616;2023-07-13T14:39:22;49.73;48.48;51.41;;
58197;Laerm;43999;51.660;5.616;2023-07-13T14:41:54;49.75;48.51;51.18;;
58197;Laerm;43999;51.660;5.616;2023-07-13T14:44:30;49.74;48.39;51.33;;
58197;Laerm;43999;51.660;5.616;2023-07-13T14:47:05;49.75;48.57;51.29;;